createdAt,value
2019-05-06T00:00:34.962Z,15.37
2019-05-06T00:03:05.316Z,12.77
2019-05-06T00:05:37.004Z,10.23
2019-05-06T00:08:07.327Z,14.03
2019-05-06T00:10:44.729Z,17.83
2019-05-06T00:13:15.658Z,13.83
2019-05-06T00:15:46.061Z,13.80
2019-05-06T00:18:16.365Z,13.50
2019-05-06T00:20:46.663Z,13.53
2019-05-06T00:23:29.009Z,11.87
2019-05-06T00:26:24.734Z,16.77
2019-05-06T00:28:58.446Z,9.70
2019-05-06T00:31:29.301Z,11.97
2019-05-06T00:33:59.442Z,11.23
2019-05-06T00:36:29.846Z,8.57
2019-05-06T00:39:06.810Z,11.73
2019-05-06T00:41:37.156Z,14.70
2019-05-06T00:44:10.319Z,13.83
2019-05-06T00:46:40.627Z,10.47
2019-05-06T00:49:10.947Z,11.10
2019-05-06T00:51:41.420Z,13.47
2019-05-06T00:54:17.781Z,14.57
2019-05-06T00:56:48.042Z,7.83
2019-05-06T00:59:18.196Z,11.43
2019-05-06T01:01:48.465Z,12.00
2019-05-06T01:04:22.122Z,9.13
2019-05-06T01:06:54.422Z,11.63
2019-05-06T01:09:26.860Z,12.90
2019-05-06T01:11:59.106Z,8.73
2019-05-06T01:14:37.825Z,10.97
2019-05-06T01:17:07.951Z,12.87
2019-05-06T01:19:38.615Z,12.40
2019-05-06T01:22:09.452Z,11.33
2019-05-06T01:24:39.750Z,9.13
2019-05-06T01:27:10.011Z,11.77
2019-05-06T01:29:40.931Z,11.40
2019-05-06T01:32:11.351Z,9.60
2019-05-06T01:34:41.770Z,10.03
2019-05-06T01:37:14.275Z,9.97
2019-05-06T01:40:00.912Z,7.67
2019-05-06T01:42:54.110Z,11.47
2019-05-06T01:45:24.215Z,8.43
2019-05-06T01:47:54.495Z,9.57
2019-05-06T01:50:25.702Z,8.73
2019-05-06T01:52:56.155Z,9.83
2019-05-06T01:55:26.737Z,12.37
2019-05-06T01:57:57.552Z,10.40
2019-05-06T02:00:27.762Z,9.17
2019-05-06T02:02:58.215Z,9.30
2019-05-06T02:05:30.407Z,8.53
2019-05-06T02:08:00.685Z,9.87
2019-05-06T02:10:31.120Z,13.10
2019-05-06T02:13:03.756Z,10.13
2019-05-06T02:15:34.606Z,9.53
2019-05-06T02:18:04.846Z,9.27
2019-05-06T02:20:40.641Z,12.10
2019-05-06T02:23:16.096Z,7.57
2019-05-06T02:25:54.005Z,8.90
2019-05-06T02:28:23.880Z,12.57
2019-05-06T02:31:19.617Z,11.57
2019-05-06T02:33:56.025Z,9.30
2019-05-06T02:36:58.357Z,9.77
2019-05-06T02:39:28.620Z,10.00
2019-05-06T02:41:59.493Z,7.93
2019-05-06T02:44:35.757Z,10.03
2019-05-06T02:47:28.941Z,11.30
2019-05-06T02:50:04.403Z,7.67
2019-05-06T02:52:34.932Z,9.23
2019-05-06T02:55:06.429Z,7.03
2019-05-06T02:57:37.564Z,10.73
2019-05-06T03:00:09.723Z,10.20
2019-05-06T03:02:47.047Z,9.83
2019-05-06T03:05:15.202Z,12.13
2019-05-06T03:07:45.275Z,12.03
2019-05-06T03:10:16.259Z,12.23
2019-05-06T03:12:46.618Z,14.60
2019-05-06T03:15:18.454Z,15.10
2019-05-06T03:17:49.192Z,14.10
2019-05-06T03:20:45.551Z,14.00
2019-05-06T03:23:17.143Z,14.63
2019-05-06T03:25:48.046Z,14.47
2019-05-06T03:28:18.841Z,13.20
2019-05-06T03:30:49.190Z,12.13
2019-05-06T03:33:47.352Z,14.27
2019-05-06T03:36:13.725Z,15.07
2019-05-06T03:38:33.234Z,10.07
2019-05-06T03:41:03.141Z,9.67
2019-05-06T03:43:34.636Z,11.60
2019-05-06T03:46:25.657Z,10.27
2019-05-06T03:49:00.272Z,12.10
2019-05-06T03:51:34.108Z,10.53
2019-05-06T03:54:04.346Z,14.43
2019-05-06T03:56:35.538Z,13.83
2019-05-06T03:59:07.913Z,15.20
2019-05-06T04:01:38.241Z,9.47
2019-05-06T04:04:08.934Z,9.63
2019-05-06T04:06:39.602Z,12.23
2019-05-06T04:09:13.050Z,13.77
2019-05-06T04:11:43.356Z,15.57
2019-05-06T04:14:15.897Z,16.17
2019-05-06T04:16:53.208Z,12.33
2019-05-06T04:19:43.850Z,13.27
2019-05-06T04:22:25.869Z,12.10
2019-05-06T04:25:14.167Z,11.63
2019-05-06T04:27:50.089Z,11.80
2019-05-06T04:30:24.023Z,10.60
2019-05-06T04:32:53.342Z,15.30
2019-05-06T04:35:24.145Z,13.80
2019-05-06T04:37:55.087Z,20.27
2019-05-06T04:40:25.497Z,17.60
2019-05-06T04:42:56.989Z,14.40
2019-05-06T04:45:27.691Z,15.93
2019-05-06T04:47:58.093Z,12.77
2019-05-06T04:50:28.251Z,17.20
2019-05-06T04:53:05.963Z,11.50
2019-05-06T04:55:37.735Z,15.60
2019-05-06T04:58:08.471Z,17.57
2019-05-06T05:00:39.232Z,12.50
2019-05-06T05:03:13.650Z,13.87
2019-05-06T05:05:44.926Z,12.63
2019-05-06T05:08:15.542Z,12.50
2019-05-06T05:10:54.153Z,13.27
2019-05-06T05:13:57.420Z,15.53
2019-05-06T05:16:36.316Z,13.03
2019-05-06T05:19:12.140Z,11.10
2019-05-06T05:21:43.656Z,15.53
2019-05-06T05:24:14.478Z,13.13
2019-05-06T05:26:47.036Z,17.20
2019-05-06T05:29:17.457Z,15.70
2019-05-06T05:31:47.804Z,18.47
2019-05-06T05:34:18.030Z,13.87
2019-05-06T05:36:48.409Z,16.87
2019-05-06T05:39:18.942Z,15.00
2019-05-06T05:41:52.017Z,13.57
2019-05-06T05:44:26.107Z,13.10
2019-05-06T05:47:00.532Z,12.80
2019-05-06T05:49:42.171Z,15.93
2019-05-06T05:52:12.743Z,17.10
2019-05-06T05:54:43.035Z,14.70
2019-05-06T05:57:16.901Z,18.13
2019-05-06T05:59:47.669Z,18.07
2019-05-06T06:02:19.151Z,16.47
2019-05-06T06:04:57.269Z,18.23
2019-05-06T06:07:25.201Z,15.07
2019-05-06T06:10:03.474Z,13.63
2019-05-06T06:12:35.011Z,17.07
2019-05-06T06:15:25.122Z,17.77
2019-05-06T06:18:19.708Z,11.60
2019-05-06T06:21:19.222Z,13.90
2019-05-06T06:23:43.514Z,15.00
2019-05-06T06:26:19.323Z,14.90
2019-05-06T06:28:52.271Z,16.23
2019-05-06T06:31:28.622Z,16.03
2019-05-06T06:34:05.746Z,15.50
2019-05-06T06:36:57.302Z,17.83
2019-05-06T06:39:34.880Z,16.13
2019-05-06T06:42:05.247Z,16.00
2019-05-06T06:44:36.657Z,10.43
2019-05-06T06:47:07.041Z,16.17
2019-05-06T06:49:39.236Z,16.10
2019-05-06T06:52:12.437Z,15.53
2019-05-06T06:54:43.786Z,15.20
2019-05-06T06:57:26.409Z,13.97
2019-05-06T07:00:19.522Z,16.93
2019-05-06T07:03:02.744Z,12.50
2019-05-06T07:06:02.343Z,13.67
2019-05-06T07:08:37.323Z,12.90
2019-05-06T07:11:06.007Z,13.73
2019-05-06T07:13:36.303Z,16.03
2019-05-06T07:16:06.587Z,13.47
2019-05-06T07:18:37.220Z,13.73
2019-05-06T07:21:35.876Z,14.57
2019-05-06T07:24:06.733Z,9.63
2019-05-06T07:26:43.412Z,14.77
2019-05-06T07:29:23.119Z,12.97
2019-05-06T07:31:46.138Z,13.80
2019-05-06T07:34:19.120Z,14.17
2019-05-06T07:36:49.460Z,16.37
2019-05-06T07:39:23.783Z,10.20
2019-05-06T07:41:58.899Z,15.33
2019-05-06T07:44:58.986Z,13.53
2019-05-06T07:47:53.145Z,11.27
2019-05-06T07:50:26.951Z,13.43
2019-05-06T07:53:21.999Z,9.57
2019-05-06T07:55:52.374Z,11.00
2019-05-06T07:58:24.492Z,11.83
2019-05-06T08:00:58.608Z,15.33
2019-05-06T08:03:38.997Z,12.37
2019-05-06T08:06:10.475Z,11.53
2019-05-06T08:08:43.275Z,12.63
2019-05-06T08:11:13.927Z,9.63
2019-05-06T08:13:44.331Z,8.70
2019-05-06T08:16:22.400Z,9.77
2019-05-06T08:18:52.374Z,8.30
2019-05-06T08:21:25.851Z,10.47
2019-05-06T08:23:59.638Z,9.63
2019-05-06T08:26:29.827Z,9.10
2019-05-06T08:29:02.821Z,11.47
2019-05-06T08:31:34.207Z,9.77
2019-05-06T08:34:06.176Z,12.67
2019-05-06T08:37:03.243Z,8.47
2019-05-06T08:39:33.486Z,6.10
2019-05-06T08:42:04.321Z,6.20
2019-05-06T08:44:34.483Z,8.13
2019-05-06T08:47:08.086Z,8.50
2019-05-06T08:50:15.617Z,8.27
2019-05-06T08:53:06.048Z,7.13
2019-05-06T08:55:39.005Z,6.37
2019-05-06T08:58:13.961Z,9.93
2019-05-06T09:00:53.739Z,5.67
2019-05-06T09:03:25.324Z,5.67
2019-05-06T09:05:56.106Z,4.83
2019-05-06T09:08:27.038Z,6.10
2019-05-06T09:10:57.418Z,6.53
2019-05-06T09:13:27.922Z,7.07
2019-05-06T09:15:58.403Z,7.43
2019-05-06T09:18:28.957Z,7.40
2019-05-06T09:20:59.254Z,8.57
2019-05-06T09:23:29.900Z,9.73
2019-05-06T09:26:13.588Z,6.57
2019-05-06T09:28:53.087Z,11.97
2019-05-06T09:31:32.178Z,7.10
2019-05-06T09:34:12.894Z,9.10
2019-05-06T09:36:51.635Z,6.63
2019-05-06T09:39:16.767Z,5.97
2019-05-06T09:41:48.959Z,9.03
2019-05-06T09:44:19.509Z,9.57
2019-05-06T09:46:58.168Z,8.07
2019-05-06T09:49:29.134Z,7.00
2019-05-06T09:52:02.717Z,8.33
2019-05-06T09:54:58.433Z,5.70
2019-05-06T09:57:32.840Z,8.20
2019-05-06T10:00:07.439Z,6.60
2019-05-06T10:02:38.501Z,7.93
2019-05-06T10:05:12.040Z,8.30
2019-05-06T10:07:42.559Z,7.37
2019-05-06T10:10:13.545Z,9.40
2019-05-06T10:12:47.284Z,6.27
2019-05-06T10:15:18.162Z,8.40
2019-05-06T10:18:12.725Z,6.43
2019-05-06T10:20:44.654Z,7.23
2019-05-06T10:23:22.223Z,6.90
2019-05-06T10:25:53.025Z,12.33
2019-05-06T10:28:41.038Z,11.63
2019-05-06T10:31:17.920Z,11.60
2019-05-06T10:34:06.509Z,7.53
2019-05-06T10:36:46.038Z,7.77
2019-05-06T10:39:31.529Z,6.50
2019-05-06T10:42:13.755Z,7.10
2019-05-06T10:45:03.088Z,8.00
2019-05-06T10:47:36.546Z,8.40
2019-05-06T10:50:08.510Z,11.97
2019-05-06T10:52:57.394Z,9.97
2019-05-06T10:55:32.535Z,7.37
2019-05-06T10:58:06.490Z,7.43
2019-05-06T11:00:42.476Z,11.50
2019-05-06T11:03:22.619Z,12.03
2019-05-06T11:05:55.365Z,12.93
2019-05-06T11:08:28.851Z,13.80
2019-05-06T11:11:12.459Z,12.90
2019-05-06T11:13:38.995Z,10.90
2019-05-06T11:16:12.825Z,10.83
2019-05-06T11:18:53.672Z,13.47
2019-05-06T11:21:29.907Z,12.93
2019-05-06T11:24:05.956Z,13.73
2019-05-06T11:26:36.396Z,11.80
2019-05-06T11:29:18.660Z,12.37
2019-05-06T11:32:21.186Z,13.60
2019-05-06T11:34:57.988Z,15.67
2019-05-06T11:37:59.742Z,15.03
2019-05-06T11:40:33.161Z,16.93
2019-05-06T11:43:03.531Z,17.93
2019-05-06T11:45:42.604Z,19.27
2019-05-06T11:48:14.644Z,21.80
2019-05-06T11:50:58.659Z,19.60
2019-05-06T11:53:40.243Z,24.10
2019-05-06T11:56:13.056Z,23.40
2019-05-06T11:58:58.326Z,24.27
2019-05-06T12:01:44.653Z,19.03
2019-05-06T12:04:25.306Z,14.87
2019-05-06T12:07:09.224Z,13.73
2019-05-06T12:09:27.844Z,16.23
2019-05-06T12:12:03.843Z,19.73
2019-05-06T12:14:38.605Z,16.53
2019-05-06T12:17:14.660Z,16.23
2019-05-06T12:19:45.248Z,17.43
2019-05-06T12:22:15.701Z,20.23
2019-05-06T12:24:55.438Z,18.70
2019-05-06T12:27:43.817Z,21.33
2019-05-06T12:30:19.904Z,21.47
2019-05-06T12:33:08.635Z,19.67
2019-05-06T12:35:43.100Z,16.40
2019-05-06T12:38:29.635Z,15.13
2019-05-06T12:40:53.619Z,15.50
2019-05-06T12:43:47.198Z,16.30
2019-05-06T12:46:33.249Z,16.20
2019-05-06T12:49:06.291Z,16.93
2019-05-06T12:51:39.963Z,15.77
2019-05-06T12:54:12.726Z,13.10
2019-05-06T12:56:42.680Z,12.10
2019-05-06T12:59:13.539Z,9.27
2019-05-06T13:01:49.674Z,8.87
2019-05-06T13:04:43.337Z,8.10
2019-05-06T13:07:03.207Z,7.23
2019-05-06T13:09:33.785Z,7.77
2019-05-06T13:12:13.265Z,6.90
2019-05-06T13:14:43.540Z,7.73
2019-05-06T13:17:28.117Z,9.67
2019-05-06T13:19:59.882Z,6.37
2019-05-06T13:22:47.425Z,9.00
2019-05-06T13:25:19.917Z,7.83
2019-05-06T13:27:56.042Z,6.13
2019-05-06T13:30:27.120Z,5.73
2019-05-06T13:33:07.423Z,6.37
2019-05-06T13:35:42.476Z,7.27
2019-05-06T13:38:17.895Z,4.60
2019-05-06T13:40:56.588Z,7.63
2019-05-06T13:43:48.429Z,7.87
2019-05-06T13:46:33.327Z,7.03
2019-05-06T13:49:43.355Z,6.77
2019-05-06T13:52:27.693Z,5.13
2019-05-06T13:55:05.090Z,7.17
2019-05-06T13:57:39.055Z,9.37
2019-05-06T14:00:09.101Z,8.73
2019-05-06T14:02:53.086Z,10.17
2019-05-06T14:05:45.502Z,9.53
2019-05-06T14:08:16.288Z,13.60
2019-05-06T14:10:59.733Z,10.50
2019-05-06T14:13:26.967Z,13.77
2019-05-06T14:15:57.589Z,10.93
2019-05-06T14:18:28.093Z,14.70
2019-05-06T14:21:02.981Z,13.83
2019-05-06T14:23:35.535Z,11.83
2019-05-06T14:26:27.442Z,11.27
2019-05-06T14:29:06.782Z,10.93
2019-05-06T14:31:42.901Z,10.40
2019-05-06T14:34:19.647Z,10.70
2019-05-06T14:36:50.457Z,12.90
2019-05-06T14:39:48.378Z,15.37
2019-05-06T14:42:08.139Z,15.47
2019-05-06T14:44:38.899Z,11.23
2019-05-06T14:47:26.948Z,13.03
2019-05-06T14:50:00.143Z,12.07
2019-05-06T14:52:29.995Z,10.60
2019-05-06T14:55:16.021Z,13.30
2019-05-06T14:57:46.932Z,12.87
2019-05-06T15:00:19.770Z,12.77
2019-05-06T15:02:50.497Z,12.13
2019-05-06T15:05:24.548Z,11.50
2019-05-06T15:08:00.465Z,12.77
2019-05-06T15:10:38.363Z,13.07
2019-05-06T15:13:12.681Z,11.17
2019-05-06T15:15:43.663Z,12.37
2019-05-06T15:18:19.701Z,14.67
2019-05-06T15:20:53.274Z,16.07
2019-05-06T15:23:25.513Z,15.47
2019-05-06T15:26:00.175Z,22.20
2019-05-06T15:28:33.594Z,16.20
2019-05-06T15:31:19.264Z,14.57
2019-05-06T15:33:52.866Z,17.20
2019-05-06T15:36:42.651Z,13.73
2019-05-06T15:39:14.712Z,14.53
2019-05-06T15:41:45.407Z,14.50
2019-05-06T15:44:31.905Z,14.80
2019-05-06T15:47:07.950Z,21.67
2019-05-06T15:49:52.677Z,43.90
2019-05-06T15:52:28.004Z,21.30
2019-05-06T15:55:06.592Z,15.23
2019-05-06T15:57:38.656Z,18.63
2019-05-06T16:00:22.452Z,18.53
2019-05-06T16:02:53.165Z,11.73
2019-05-06T16:05:26.391Z,9.70
2019-05-06T16:07:57.240Z,14.13
2019-05-06T16:10:29.990Z,10.83
2019-05-06T16:13:06.020Z,10.90
2019-05-06T16:15:36.893Z,12.87
2019-05-06T16:18:07.817Z,11.83
2019-05-06T16:20:43.418Z,11.87
2019-05-06T16:23:45.013Z,9.43
2019-05-06T16:26:24.086Z,11.73
2019-05-06T16:28:52.997Z,13.63
2019-05-06T16:31:28.123Z,10.73
2019-05-06T16:34:03.126Z,9.60
2019-05-06T16:36:34.706Z,10.70
2019-05-06T16:39:12.419Z,10.57
2019-05-06T16:41:45.192Z,7.37
2019-05-06T16:44:21.609Z,7.57
2019-05-06T16:47:03.642Z,8.73
2019-05-06T16:49:34.971Z,9.17
2019-05-06T16:52:08.271Z,6.60
2019-05-06T16:54:43.386Z,10.80
2019-05-06T16:57:23.183Z,7.03
2019-05-06T16:59:54.677Z,9.77
2019-05-06T17:02:35.766Z,11.53
2019-05-06T17:05:25.267Z,12.53
2019-05-06T17:07:59.682Z,7.70
2019-05-06T17:10:32.173Z,8.17
2019-05-06T17:13:09.565Z,8.03
2019-05-06T17:15:50.812Z,8.17
2019-05-06T17:18:22.727Z,7.70
2019-05-06T17:20:54.148Z,7.53
2019-05-06T17:23:32.433Z,7.03
2019-05-06T17:26:08.306Z,7.70
2019-05-06T17:29:03.812Z,11.53
2019-05-06T17:31:59.295Z,7.33
2019-05-06T17:34:37.068Z,8.63
2019-05-06T17:37:15.828Z,9.17
2019-05-06T17:39:46.827Z,10.00
2019-05-06T17:42:22.540Z,10.90
2019-05-06T17:45:02.460Z,7.57
2019-05-06T17:47:48.555Z,8.40
2019-05-06T17:50:22.930Z,9.47
2019-05-06T17:53:00.469Z,10.33
2019-05-06T17:55:32.811Z,9.50
2019-05-06T17:58:04.027Z,10.03
2019-05-06T18:00:39.435Z,8.07
2019-05-06T18:03:13.816Z,8.70
2019-05-06T18:05:47.672Z,9.30
2019-05-06T18:08:22.460Z,13.83
2019-05-06T18:11:01.529Z,13.30
2019-05-06T18:13:32.342Z,11.70
2019-05-06T18:16:09.377Z,12.77
2019-05-06T18:18:45.047Z,10.53
2019-05-06T18:21:16.197Z,10.93
2019-05-06T18:23:53.935Z,8.70
2019-05-06T18:26:25.804Z,12.67
2019-05-06T18:29:08.640Z,9.63
2019-05-06T18:31:48.774Z,10.53
2019-05-06T18:34:23.047Z,10.17
2019-05-06T18:36:57.386Z,9.80
2019-05-06T18:39:33.596Z,10.90
2019-05-06T18:42:16.935Z,10.63
2019-05-06T18:44:46.883Z,12.40
2019-05-06T18:47:24.382Z,10.80
2019-05-06T18:49:58.680Z,9.40
2019-05-06T18:52:57.506Z,12.77
2019-05-06T18:55:33.049Z,11.47
2019-05-06T18:58:12.856Z,13.73
2019-05-06T19:00:47.250Z,12.63
2019-05-06T19:03:18.287Z,11.57
2019-05-06T19:05:52.862Z,11.60
2019-05-06T19:08:46.982Z,16.40
2019-05-06T19:11:22.051Z,14.90
2019-05-06T19:13:52.775Z,14.70
2019-05-06T19:16:27.042Z,16.47
2019-05-06T19:18:57.681Z,12.20
2019-05-06T19:21:28.031Z,14.27
2019-05-06T19:23:58.777Z,13.97
2019-05-06T19:26:38.172Z,13.77
2019-05-06T19:29:12.243Z,13.63
2019-05-06T19:31:45.726Z,15.50
2019-05-06T19:34:19.421Z,12.70
2019-05-06T19:36:59.040Z,13.37
2019-05-06T19:39:37.653Z,13.60
2019-05-06T19:42:26.212Z,14.07
2019-05-06T19:45:02.924Z,14.00
2019-05-06T19:47:34.163Z,12.90
2019-05-06T19:50:06.911Z,12.37
2019-05-06T19:52:48.944Z,14.73
2019-05-06T19:55:26.785Z,15.03
2019-05-06T19:58:02.401Z,16.63
2019-05-06T20:00:33.449Z,17.70
2019-05-06T20:03:17.595Z,15.90
2019-05-06T20:06:22.572Z,19.50
2019-05-06T20:09:02.518Z,18.30
2019-05-06T20:11:48.168Z,19.13
2019-05-06T20:14:25.245Z,18.07
2019-05-06T20:16:55.855Z,18.43
2019-05-06T20:19:30.731Z,16.77
2019-05-06T20:22:10.082Z,16.67
2019-05-06T20:24:42.561Z,18.80
2019-05-06T20:27:19.758Z,21.00
2019-05-06T20:29:55.779Z,26.00
2019-05-06T20:32:32.248Z,23.33
2019-05-06T20:35:02.936Z,27.33
2019-05-06T20:37:36.279Z,22.13
2019-05-06T20:40:07.584Z,27.10
2019-05-06T20:42:40.078Z,29.37
2019-05-06T20:45:12.851Z,31.13
2019-05-06T20:47:43.468Z,27.60
2019-05-06T20:50:18.429Z,31.00
2019-05-06T20:52:49.063Z,32.53
2019-05-06T20:55:19.784Z,26.80
2019-05-06T20:57:52.727Z,27.90
2019-05-06T21:00:25.988Z,29.17
2019-05-06T21:02:56.378Z,29.67
2019-05-06T21:05:32.363Z,28.40
2019-05-06T21:08:06.512Z,21.90
2019-05-06T21:10:36.884Z,22.47
2019-05-06T21:13:08.103Z,23.43
2019-05-06T21:15:43.206Z,21.17
2019-05-06T21:18:13.648Z,20.77
2019-05-06T21:20:44.861Z,21.87
2019-05-06T21:23:17.742Z,25.30
2019-05-06T21:25:48.282Z,24.03
2019-05-06T21:28:18.902Z,25.70
2019-05-06T21:30:52.481Z,29.27
2019-05-06T21:33:23.309Z,25.13
2019-05-06T21:35:53.872Z,24.63
2019-05-06T21:38:24.013Z,34.53
2019-05-06T21:40:57.420Z,33.13
2019-05-06T21:43:42.838Z,37.13
2019-05-06T21:46:03.249Z,39.33
2019-05-06T21:48:36.656Z,39.17
2019-05-06T21:51:07.298Z,46.67
2019-05-06T21:53:39.071Z,42.03
2019-05-06T21:56:13.057Z,46.13
2019-05-06T21:58:48.338Z,40.50
2019-05-06T22:01:19.262Z,40.70
2019-05-06T22:03:49.507Z,47.13
2019-05-06T22:06:26.850Z,44.43
2019-05-06T22:08:57.324Z,39.97
2019-05-06T22:11:27.817Z,48.33
2019-05-06T22:14:01.606Z,39.53
2019-05-06T22:16:34.146Z,38.03
2019-05-06T22:19:05.844Z,36.47
2019-05-06T22:21:45.938Z,38.47
2019-05-06T22:24:21.901Z,33.87
2019-05-06T22:26:57.247Z,33.27
2019-05-06T22:29:27.424Z,31.97
2019-05-06T22:31:57.961Z,40.07
2019-05-06T22:34:36.131Z,36.60
2019-05-06T22:37:06.352Z,34.43
2019-05-06T22:39:37.004Z,32.90
2019-05-06T22:42:11.441Z,32.17
2019-05-06T22:44:43.706Z,33.73
2019-05-06T22:47:17.003Z,34.73
2019-05-06T22:49:49.337Z,35.70
2019-05-06T22:52:19.811Z,35.33
2019-05-06T22:54:52.620Z,37.10
2019-05-06T22:57:23.509Z,38.23
2019-05-06T22:59:54.144Z,29.57
2019-05-06T23:02:42.888Z,32.50
2019-05-06T23:05:13.459Z,36.77
2019-05-06T23:07:44.072Z,31.20
2019-05-06T23:10:14.578Z,33.60
2019-05-06T23:12:45.228Z,32.73
2019-05-06T23:15:21.077Z,37.63
2019-05-06T23:17:52.700Z,30.90
2019-05-06T23:20:24.510Z,36.23
2019-05-06T23:22:55.057Z,29.57
2019-05-06T23:25:26.261Z,29.37
2019-05-06T23:27:58.166Z,34.87
2019-05-06T23:30:30.720Z,31.90
2019-05-06T23:33:01.484Z,31.40
2019-05-06T23:35:31.823Z,30.87
2019-05-06T23:38:37.621Z,32.30
2019-05-06T23:41:44.718Z,32.90
2019-05-06T23:44:54.537Z,41.00
2019-05-06T23:47:57.937Z,44.93
2019-05-06T23:51:04.143Z,53.33
2019-05-06T23:54:09.772Z,51.07
2019-05-06T23:56:47.634Z,52.20
2019-05-06T23:59:18.573Z,59.47
